Time;durP1;ratioP1;P1;durP2;ratioP2;P2;SDS_P1;SDS_P2;PMS_P1;PMS_P2;Temp;Humidity;BMP_temperature;BMP_pressure;BME280_temperature;BME280_humidity;BME280_pressure;Samples;Min_cycle;Max_cycle;Signal;HPM_P1;HPM_P2
2022/08/14 00:01:28;;;;;;;;;;;;;;;23.72;42.24023;101331.3;;;;-75
2022/08/14 00:06:29;;;;;;;;;;;;;;;23.68;42.27148;101327;;;;-75
2022/08/14 00:10:48;;;;;;;6.6;4.4;;;;;;;;;;;;;-74
2022/08/14 00:11:28;;;;;;;;;;;;;;;23.64;42.38281;101324.9;;;;-74
2022/08/14 00:16:28;;;;;;;;;;;;;;;23.61;42.41504;101322.7;;;;-74
2022/08/14 00:21:28;;;;;;;;;;;;;;;23.6;42.56348;101315.3;;;;-75
2022/08/14 00:26:28;;;;;;;;;;;;;;;23.55;42.32813;101308.6;;;;-75
2022/08/14 00:31:29;;;;;;;;;;;;;;;23.5;42.64551;101306.1;;;;-74
2022/08/14 00:36:28;;;;;;;;;;;;;;;23.44;42.89355;101303.5;;;;-73
2022/08/14 00:40:52;;;;;;;8.8;4.5;;;;;;;;;;;;;-74
2022/08/14 00:41:32;;;;;;;;;;;;;;;23.41;43.11035;101298.2;;;;-74
2022/08/14 00:46:28;;;;;;;;;;;;;;;23.39;43.16504;101292.5;;;;-74
2022/08/14 00:51:31;;;;;;;;;;;;;;;23.35;43.28809;101281.5;;;;-74
2022/08/14 00:56:28;;;;;;;;;;;;;;;23.31;43.5957;101280.7;;;;-74
2022/08/14 01:01:28;;;;;;;;;;;;;;;23.26;43.12988;101273.2;;;;-75
2022/08/14 01:06:31;;;;;;;;;;;;;;;23.24;43.80762;101273.9;;;;-73
2022/08/14 01:10:56;;;;;;;7.9;5.2;;;;;;;;;;;;;-74
2022/08/14 01:11:28;;;;;;;;;;;;;;;23.2;43.51563;101266;;;;-75
2022/08/14 01:16:29;;;;;;;;;;;;;;;23.14;42.87695;101262.3;;;;-76
2022/08/14 01:21:33;;;;;;;;;;;;;;;23.12;42.8623;101255.7;;;;-74
2022/08/14 01:26:28;;;;;;;;;;;;;;;23.08;42.74512;101246.4;;;;-74
2022/08/14 01:31:29;;;;;;;;;;;;;;;23.01;43.07129;101244.2;;;;-76
2022/08/14 01:36:35;;;;;;;;;;;;;;;22.96;42.95215;101232.8;;;;-73
2022/08/14 01:40:59;;;;;;;8;5.1;;;;;;;;;;;;;-74
2022/08/14 01:41:29;;;;;;;;;;;;;;;22.91;43.13086;101231.1;;;;-74
2022/08/14 01:46:28;;;;;;;;;;;;;;;22.84;42.96289;101219.2;;;;-75
2022/08/14 01:51:29;;;;;;;;;;;;;;;22.81;43.30566;101217.5;;;;-74
2022/08/14 01:56:35;;;;;;;;;;;;;;;22.76;43.03613;101215;;;;-74
2022/08/14 02:01:28;;;;;;;;;;;;;;;22.7;43.12207;101211.5;;;;-74
2022/08/14 02:06:29;;;;;;;;;;;;;;;22.64;43.02441;101208.2;;;;-75
2022/08/14 02:11:28;;;;;;;;;;;;;;;22.59;43.11133;101202.2;;;;-75
2022/08/14 02:16:29;;;;;;;;;;;;;;;22.52;43.23145;101195.9;;;;-74
2022/08/14 02:21:29;;;;;;;;;;;;;;;22.47;43.2373;101193.8;;;;-75
2022/08/14 02:26:29;;;;;;;;;;;;;;;22.45;43.35156;101188.6;;;;-74
2022/08/14 02:31:31;;;;;;;;;;;;;;;22.4;43.25391;101192.4;;;;-75
2022/08/14 02:36:28;;;;;;;;;;;;;;;22.33;43.78711;101193.1;;;;-74
2022/08/14 02:41:06;;;;;;;8.3;5.3;;;;;;;;;;;;;-75
2022/08/14 02:41:28;;;;;;;;;;;;;;;22.27;43.67871;101188.9;;;;-73
2022/08/14 02:46:31;;;;;;;;;;;;;;;22.24;43.58301;101186.9;;;;-75
2022/08/14 02:51:28;;;;;;;;;;;;;;;22.2;43.74023;101184.3;;;;-74
2022/08/14 02:56:28;;;;;;;;;;;;;;;22.13;43.75586;101178.9;;;;-74
2022/08/14 03:01:28;;;;;;;;;;;;;;;22.1;43.99414;101173.6;;;;-74
2022/08/14 03:06:28;;;;;;;;;;;;;;;22.05;43.98926;101171;;;;-75
2022/08/14 03:11:10;;;;;;;7.3;5.1;;;;;;;;;;;;;-75
2022/08/14 03:11:28;;;;;;;;;;;;;;;22;43.91602;101176;;;;-73
2022/08/14 03:16:35;;;;;;;;;;;;;;;21.97;44.41797;101169.1;;;;-75
2022/08/14 03:21:28;;;;;;;;;;;;;;;21.9;44.13574;101165.1;;;;-74
2022/08/14 03:26:28;;;;;;;;;;;;;;;21.87;44.49902;101159.3;;;;-74
2022/08/14 03:31:28;;;;;;;;;;;;;;;21.83;44.41602;101156.8;;;;-75
2022/08/14 03:36:31;;;;;;;;;;;;;;;21.79;44.42285;101154;;;;-75
2022/08/14 03:41:15;;;;;;;7.5;5.5;;;;;;;;;;;;;-75
2022/08/14 03:41:29;;;;;;;;;;;;;;;21.75;44.44141;101153.6;;;;-74
2022/08/14 03:46:29;;;;;;;;;;;;;;;21.72;44.4502;101152.6;;;;-74
2022/08/14 03:51:28;;;;;;;;;;;;;;;21.67;44.77734;101150.4;;;;-74
2022/08/14 03:56:29;;;;;;;;;;;;;;;21.6;44.67969;101142.9;;;;-72
2022/08/14 04:01:29;;;;;;;;;;;;;;;21.54;44.87988;101142.5;;;;-74
2022/08/14 04:06:28;;;;;;;;;;;;;;;21.53;45.04004;101140;;;;-75
2022/08/14 04:11:16;;;;;;;8.2;5.5;;;;;;;;;;;;;-74
2022/08/14 04:11:28;;;;;;;;;;;;;;;21.48;45.43457;101136.8;;;;-73
2022/08/14 04:16:28;;;;;;;;;;;;;;;21.43;45.65918;101134.3;;;;-74
2022/08/14 04:21:31;;;;;;;;;;;;;;;21.4;45.87305;101131.8;;;;-75
2022/08/14 04:26:29;;;;;;;;;;;;;;;21.35;45.68555;101136.1;;;;-75
2022/08/14 04:31:28;;;;;;;;;;;;;;;21.33;45.82031;101130.5;;;;-73
2022/08/14 04:36:28;;;;;;;;;;;;;;;21.31;46.09375;101127.1;;;;-74
2022/08/14 04:46:28;;;;;;;;;;;;;;;21.25;46.3291;101121.7;;;;-74
2022/08/14 04:51:28;;;;;;;;;;;;;;;21.23;46.31445;101120.3;;;;-75
2022/08/14 04:56:29;;;;;;;;;;;;;;;21.23;47.0127;101128.2;;;;-74
2022/08/14 05:01:28;;;;;;;;;;;;;;;21.2;46.5752;101133.6;;;;-74
2022/08/14 05:06:28;;;;;;;;;;;;;;;21.21;47.06934;101120.5;;;;-75
2022/08/14 05:11:22;;;;;;;8.4;5.8;;;;;;;;;;;;;-74
2022/08/14 05:11:34;;;;;;;;;;;;;;;21.21;46.82813;101116;;;;-73
2022/08/14 05:16:30;;;;;;;;;;;;;;;21.23;46.97852;101111.1;;;;-74
2022/08/14 05:21:28;;;;;;;;;;;;;;;21.23;47.16211;101110.5;;;;-75
2022/08/14 05:26:28;;;;;;;;;;;;;;;21.27;47.12012;101110.8;;;;-75
2022/08/14 05:31:28;;;;;;;;;;;;;;;21.29;47.21484;101100.8;;;;-75
2022/08/14 05:36:28;;;;;;;;;;;;;;;21.32;46.94238;101101.3;;;;-75
2022/08/14 05:41:26;;;;;;;9.6;5.8;;;;;;;;;;;;;-75
2022/08/14 05:41:45;;;;;;;;;;;;;;;21.35;48.49121;101090;;;;-74
2022/08/14 05:46:28;;;;;;;;;;;;;;;21.47;47.94434;101097.4;;;;-74
2022/08/14 05:51:28;;;;;;;;;;;;;;;21.82;47.52246;101089.4;;;;-75
2022/08/14 05:56:29;;;;;;;;;;;;;;;22.35;46.4082;101084.2;;;;-73
2022/08/14 06:01:28;;;;;;;;;;;;;;;22.97;45.51758;101080.6;;;;-75
2022/08/14 06:06:29;;;;;;;;;;;;;;;23.52;44.57129;101081.2;;;;-75
2022/08/14 06:11:28;;;;;;;;;;;;;;;24;43.63965;101085.7;;;;-75
2022/08/14 06:11:41;;;;;;;7.7;5.9;;;;;;;;;;;;;-75
2022/08/14 06:16:28;;;;;;;;;;;;;;;24.31;43.26563;101083.3;;;;-74
2022/08/14 06:21:28;;;;;;;;;;;;;;;24.49;43.16797;101076.6;;;;-74
2022/08/14 06:26:28;;;;;;;;;;;;;;;24.83;42.81836;101074.3;;;;-74
2022/08/14 06:31:28;;;;;;;;;;;;;;;25.26;42.08398;101079.2;;;;-74
2022/08/14 06:36:28;;;;;;;;;;;;;;;25.67;41.48633;101076.5;;;;-75
2022/08/14 06:41:28;;;;;;;;;;;;;;;26.07;40.88477;101078.3;;;;-74
2022/08/14 06:41:47;;;;;;;8.5;6;;;;;;;;;;;;;-74
2022/08/14 06:46:31;;;;;;;;;;;;;;;26.43;40.30273;101084.6;;;;-75
2022/08/14 06:51:28;;;;;;;;;;;;;;;26.77;39.83398;101083.3;;;;-74
2022/08/14 06:56:28;;;;;;;;;;;;;;;27.08;39.47754;101087.2;;;;-71
2022/08/14 07:06:29;;;;;;;;;;;;;;;27.73;38.70703;101079.1;;;;-75
2022/08/14 07:11:28;;;;;;;;;;;;;;;28.02;38.25391;101071.1;;;;-70
2022/08/14 07:11:38;;;;;;;7.3;5.4;;;;;;;;;;;;;-70
2022/08/14 07:16:28;;;;;;;;;;;;;;;28.3;38.04395;101064.4;;;;-75
2022/08/14 07:21:28;;;;;;;;;;;;;;;28.54;37.80859;101066.8;;;;-74
2022/08/14 07:26:28;;;;;;;;;;;;;;;28.74;37.67285;101065.1;;;;-74
2022/08/14 07:31:28;;;;;;;;;;;;;;;28.94;37.5498;101061.3;;;;-75
2022/08/14 07:36:28;;;;;;;;;;;;;;;29.15;37.4375;101070.3;;;;-74
2022/08/14 07:41:28;;;;;;;;;;;;;;;29.37;37.38574;101058.9;;;;-74
2022/08/14 07:41:44;;;;;;;7.3;5.6;;;;;;;;;;;;;-74
2022/08/14 07:46:28;;;;;;;;;;;;;;;29.55;37.25;101051.8;;;;-75
2022/08/14 07:51:28;;;;;;;;;;;;;;;29.72;37.11035;101047.8;;;;-70
2022/08/14 07:56:31;;;;;;;;;;;;;;;30.03;36.70313;101048.3;;;;-69
2022/08/14 08:01:29;;;;;;;;;;;;;;;30.25;36.42871;101056.7;;;;-70
2022/08/14 08:06:28;;;;;;;;;;;;;;;30.43;36.51367;101053.5;;;;-71
2022/08/14 08:11:28;;;;;;;;;;;;;;;30.73;36.12598;101062.6;;;;-75
2022/08/14 08:11:46;;;;;;;7.9;5.5;;;;;;;;;;;;;-73
2022/08/14 08:16:28;;;;;;;;;;;;;;;31.02;35.83203;101053.5;;;;-75
2022/08/14 08:21:28;;;;;;;;;;;;;;;31.29;35.50098;101038.3;;;;-74
2022/08/14 08:26:31;;;;;;;;;;;;;;;31.51;35.25879;101026.6;;;;-75
2022/08/14 08:31:28;;;;;;;;;;;;;;;31.74;35.05371;101027.3;;;;-74
2022/08/14 08:36:28;;;;;;;;;;;;;;;31.95;34.87012;101022;;;;-74
2022/08/14 08:41:28;;;;;;;;;;;;;;;32.24;34.52637;101017.9;;;;-75
2022/08/14 08:41:51;;;;;;;7;5.7;;;;;;;;;;;;;-74
2022/08/14 08:46:28;;;;;;;;;;;;;;;32.47;34.30957;101007;;;;-76
2022/08/14 08:51:32;;;;;;;;;;;;;;;32.69;34.14844;101001.8;;;;-74
2022/08/14 08:56:35;;;;;;;;;;;;;;;32.9;33.96289;101005.1;;;;-75
2022/08/14 09:01:30;;;;;;;;;;;;;;;33.13;33.7207;101007.8;;;;-75
2022/08/14 09:06:28;;;;;;;;;;;;;;;33.39;33.54004;101014.1;;;;-75
2022/08/14 09:11:28;;;;;;;;;;;;;;;33.58;33.24609;101017.1;;;;-75
2022/08/14 09:11:58;;;;;;;8.6;5.6;;;;;;;;;;;;;-76
2022/08/14 09:16:28;;;;;;;;;;;;;;;33.75;33.10449;101010.8;;;;-76
2022/08/14 09:21:28;;;;;;;;;;;;;;;33.98;32.84863;101012.4;;;;-74
2022/08/14 09:26:28;;;;;;;;;;;;;;;34.21;32.59375;101006.7;;;;-75
2022/08/14 09:31:29;;;;;;;;;;;;;;;34.43;32.24219;100998.7;;;;-75
2022/08/14 09:36:37;;;;;;;;;;;;;;;34.6;32.15918;100989.9;;;;-76
2022/08/14 09:41:36;;;;;;;;;;;;;;;34.79;32.10156;100989.9;;;;-75
2022/08/14 09:42:08;;;;;;;7.3;5.6;;;;;;;;;;;;;-76
2022/08/14 09:46:29;;;;;;;;;;;;;;;35.02;31.96289;100985.1;;;;-75
2022/08/14 09:51:28;;;;;;;;;;;;;;;35.2;31.57227;100984.5;;;;-75
2022/08/14 09:56:28;;;;;;;;;;;;;;;35.38;31.46582;100971.7;;;;-76
2022/08/14 10:01:39;;;;;;;;;;;;;;;35.61;31.36328;100965.4;;;;-75
2022/08/14 10:06:29;;;;;;;;;;;;;;;35.87;31.04785;100957.6;;;;-75
2022/08/14 10:11:30;;;;;;;;;;;;;;;36.08;30.76465;100946.2;;;;-76
2022/08/14 10:12:09;;;;;;;7.5;5.4;;;;;;;;;;;;;-75
2022/08/14 10:16:29;;;;;;;;;;;;;;;36.37;30.70117;100945.7;;;;-75
2022/08/14 10:21:28;;;;;;;;;;;;;;;36.63;30.20703;100939.5;;;;-75
2022/08/14 10:26:28;;;;;;;;;;;;;;;36.85;30.03027;100928.9;;;;-76
2022/08/14 10:31:31;;;;;;;;;;;;;;;37.08;29.46094;100925.1;;;;-76
2022/08/14 10:36:34;;;;;;;;;;;;;;;37.27;29.28223;100918.4;;;;-76
2022/08/14 10:41:37;;;;;;;;;;;;;;;37.43;29.09082;100919.7;;;;-76
2022/08/14 10:42:16;;;;;;;7.4;5.1;;;;;;;;;;;;;-76
2022/08/14 10:46:28;;;;;;;;;;;;;;;37.61;28.70801;100912.9;;;;-75
2022/08/14 10:51:33;;;;;;;;;;;;;;;37.74;28.69141;100907.2;;;;-77
2022/08/14 10:56:32;;;;;;;;;;;;;;;37.93;28.48926;100908.5;;;;-75
2022/08/14 11:01:33;;;;;;;;;;;;;;;38.13;28.33398;100903.7;;;;-75
2022/08/14 11:06:29;;;;;;;;;;;;;;;38.24;28.42383;100894;;;;-75
2022/08/14 11:11:29;;;;;;;;;;;;;;;38.4;28.1709;100888.6;;;;-76
2022/08/14 11:12:21;;;;;;;7.1;4.7;;;;;;;;;;;;;-75
2022/08/14 11:16:29;;;;;;;;;;;;;;;38.61;27.72949;100890.7;;;;-75
2022/08/14 11:21:29;;;;;;;;;;;;;;;38.73;27.49707;100883.6;;;;-75
2022/08/14 11:26:29;;;;;;;;;;;;;;;38.84;27.40723;100883.3;;;;-76
2022/08/14 11:31:30;;;;;;;;;;;;;;;38.92;27.7002;100875.5;;;;-78
2022/08/14 11:36:29;;;;;;;;;;;;;;;39.02;27.38184;100872.7;;;;-78
2022/08/14 11:41:28;;;;;;;;;;;;;;;39.14;27.38965;100871.1;;;;-78
2022/08/14 11:42:31;;;;;;;6.2;4.5;;;;;;;;;;;;;-77
2022/08/14 11:46:28;;;;;;;;;;;;;;;39.27;27.12207;100872.7;;;;-78
2022/08/14 11:51:31;;;;;;;;;;;;;;;39.37;27.29395;100871;;;;-79
2022/08/14 11:56:28;;;;;;;;;;;;;;;39.45;27.05957;100866.2;;;;-78
2022/08/14 12:01:32;;;;;;;;;;;;;;;39.52;27.10059;100871.3;;;;-78
2022/08/14 12:06:30;;;;;;;;;;;;;;;39.64;27.40625;100867.6;;;;-78
2022/08/14 12:11:28;;;;;;;;;;;;;;;39.79;27.10352;100853;;;;-78
2022/08/14 12:12:35;;;;;;;4.8;4.2;;;;;;;;;;;;;-78
2022/08/14 12:16:30;;;;;;;;;;;;;;;39.99;26.70703;100854.2;;;;-77
2022/08/14 12:21:28;;;;;;;;;;;;;;;40.11;26.40137;100856.5;;;;-77
2022/08/14 12:26:31;;;;;;;;;;;;;;;40.18;26.10547;100847.7;;;;-77
2022/08/14 12:31:28;;;;;;;;;;;;;;;40.27;26.19434;100840.6;;;;-78
2022/08/14 12:36:29;;;;;;;;;;;;;;;40.41;26.00977;100827.5;;;;-75
2022/08/14 12:41:30;;;;;;;;;;;;;;;40.56;25.82617;100817;;;;-77
2022/08/14 12:42:46;;;;;;;4.8;4.1;;;;;;;;;;;;;-76
2022/08/14 12:46:30;;;;;;;;;;;;;;;40.68;25.70117;100804.3;;;;-75
2022/08/14 12:51:29;;;;;;;;;;;;;;;40.73;25.99219;100795.7;;;;-75
2022/08/14 12:56:29;;;;;;;;;;;;;;;40.88;25.32715;100795.4;;;;-75
2022/08/14 13:01:31;;;;;;;;;;;;;;;41.05;25.41992;100784;;;;-76
2022/08/14 13:06:28;;;;;;;;;;;;;;;41.15;24.94434;100777.3;;;;-75
2022/08/14 13:11:30;;;;;;;;;;;;;;;41.26;25.40723;100775.5;;;;-77
2022/08/14 13:12:50;;;;;;;6.3;4;;;;;;;;;;;;;-75
2022/08/14 13:16:28;;;;;;;;;;;;;;;41.33;25.2666;100770;;;;-76
2022/08/14 13:21:30;;;;;;;;;;;;;;;41.43;25.28418;100762.6;;;;-77
2022/08/14 13:26:28;;;;;;;;;;;;;;;41.53;24.50684;100759;;;;-75
2022/08/14 13:31:28;;;;;;;;;;;;;;;41.61;23.88379;100744.1;;;;-75
2022/08/14 13:36:28;;;;;;;;;;;;;;;41.61;23.66602;100747.7;;;;-76
2022/08/14 13:41:32;;;;;;;;;;;;;;;41.65;24.05469;100741.9;;;;-76
2022/08/14 13:42:58;;;;;;;4.5;3.5;;;;;;;;;;;;;-76
2022/08/14 13:46:28;;;;;;;;;;;;;;;41.74;24.10742;100744.9;;;;-76
2022/08/14 13:51:30;;;;;;;;;;;;;;;41.74;23.72168;100739.6;;;;-76
2022/08/14 13:56:30;;;;;;;;;;;;;;;41.75;23.31152;100734.5;;;;-76
2022/08/14 14:01:32;;;;;;;;;;;;;;;41.76;23.63867;100727.1;;;;-75
2022/08/14 14:06:28;;;;;;;;;;;;;;;41.78;23.34961;100725.7;;;;-75
2022/08/14 14:11:28;;;;;;;;;;;;;;;41.73;23.22656;100725.4;;;;-77
2022/08/14 14:13:06;;;;;;;4.9;3.3;;;;;;;;;;;;;-75
2022/08/14 14:16:28;;;;;;;;;;;;;;;41.66;23.47656;100718.4;;;;-75
2022/08/14 14:21:29;;;;;;;;;;;;;;;41.61;23.38965;100710.7;;;;-75
2022/08/14 14:26:28;;;;;;;;;;;;;;;41.58;23.3877;100713.3;;;;-75
2022/08/14 14:31:28;;;;;;;;;;;;;;;41.58;22.96582;100715.5;;;;-76
2022/08/14 14:36:29;;;;;;;;;;;;;;;41.59;23.52051;100714.7;;;;-75
2022/08/14 14:41:31;;;;;;;;;;;;;;;41.66;23.03027;100710.7;;;;-75
2022/08/14 14:43:16;;;;;;;4.4;3.5;;;;;;;;;;;;;-76
2022/08/14 14:46:31;;;;;;;;;;;;;;;41.64;23.17383;100706.9;;;;-75
2022/08/14 14:51:28;;;;;;;;;;;;;;;41.57;22.44629;100701;;;;-74
2022/08/14 14:56:28;;;;;;;;;;;;;;;41.38;22.7627;100699.3;;;;-75
2022/08/14 15:01:28;;;;;;;;;;;;;;;41.23;23.44238;100689.9;;;;-76
2022/08/14 15:06:30;;;;;;;;;;;;;;;41.05;22.54199;100685;;;;-76
2022/08/14 15:11:28;;;;;;;;;;;;;;;40.8;22.78223;100679;;;;-76
2022/08/14 15:13:21;;;;;;;5.3;3.5;;;;;;;;;;;;;-76
2022/08/14 15:16:28;;;;;;;;;;;;;;;40.58;23.08496;100682.9;;;;-76
2022/08/14 15:21:28;;;;;;;;;;;;;;;40.4;23.4248;100674.7;;;;-75
2022/08/14 15:26:28;;;;;;;;;;;;;;;40.26;23.2373;100676.2;;;;-74
2022/08/14 15:31:28;;;;;;;;;;;;;;;40.09;23.43262;100673.9;;;;-75
2022/08/14 15:36:28;;;;;;;;;;;;;;;39.85;23.45703;100673.8;;;;-75
2022/08/14 15:41:28;;;;;;;;;;;;;;;39.58;23.70703;100665.2;;;;-75
2022/08/14 15:43:29;;;;;;;5.7;3.6;;;;;;;;;;;;;-74
2022/08/14 15:46:28;;;;;;;;;;;;;;;39.34;23.79102;100668.3;;;;-76
2022/08/14 15:51:31;;;;;;;;;;;;;;;39.09;24.06641;100654.6;;;;-75
2022/08/14 15:56:28;;;;;;;;;;;;;;;38.87;24.40234;100649.6;;;;-74
2022/08/14 16:01:28;;;;;;;;;;;;;;;38.65;24.55859;100649.9;;;;-75
2022/08/14 16:06:32;;;;;;;;;;;;;;;38.44;24.97754;100647.7;;;;-74
2022/08/14 16:11:28;;;;;;;;;;;;;;;38.18;25.59766;100645.8;;;;-75
2022/08/14 16:13:37;;;;;;;5.2;3.6;;;;;;;;;;;;;-75
2022/08/14 16:16:29;;;;;;;;;;;;;;;37.89;25.78516;100647.4;;;;-76
2022/08/14 16:21:29;;;;;;;;;;;;;;;37.6;25.81641;100637.8;;;;-74
2022/08/14 16:26:28;;;;;;;;;;;;;;;37.39;26.05566;100640.7;;;;-76
2022/08/14 16:31:28;;;;;;;;;;;;;;;37.16;26.00781;100634.3;;;;-74
2022/08/14 16:36:28;;;;;;;;;;;;;;;36.97;25.99609;100634.3;;;;-74
2022/08/14 16:41:31;;;;;;;;;;;;;;;36.73;25.51758;100629.5;;;;-75
2022/08/14 16:43:43;;;;;;;5;3.8;;;;;;;;;;;;;-75
2022/08/14 16:46:30;;;;;;;;;;;;;;;36.46;25.66992;100625.8;;;;-75
2022/08/14 16:51:28;;;;;;;;;;;;;;;36.21;25.42969;100619;;;;-76
2022/08/14 16:56:28;;;;;;;;;;;;;;;35.99;26.03613;100608.6;;;;-75
2022/08/14 17:01:27;;;;;;;;;;;;;;;35.81;26.24121;100603.1;;;;-75
2022/08/14 17:06:41;;;;;;;;;;;;;;;35.68;26.53027;100598.3;;;;-74
2022/08/14 17:11:30;;;;;;;;;;;;;;;35.56;26.4043;100592.5;;;;-75
2022/08/14 17:13:48;;;;;;;5;3.9;;;;;;;;;;;;;-75
2022/08/14 17:16:28;;;;;;;;;;;;;;;35.41;26.83496;100588.3;;;;-74
2022/08/14 17:21:29;;;;;;;;;;;;;;;35.24;27.18164;100590.9;;;;-75
2022/08/14 17:26:44;;;;;;;;;;;;;;;35.08;27.14844;100586.6;;;;-78
2022/08/14 17:31:33;;;;;;;;;;;;;;;34.92;27.06836;100579.8;;;;-77
2022/08/14 17:36:28;;;;;;;;;;;;;;;34.77;27.3916;100584;;;;-76
2022/08/14 17:41:28;;;;;;;;;;;;;;;34.6;27.32227;100577;;;;-77
2022/08/14 17:43:55;;;;;;;5.6;4.4;;;;;;;;;;;;;-76
2022/08/14 17:46:40;;;;;;;;;;;;;;;34.42;27.2168;100573.7;;;;-77
2022/08/14 17:51:28;;;;;;;;;;;;;;;34.25;27.52637;100572.5;;;;-76
2022/08/14 17:56:30;;;;;;;;;;;;;;;34.06;27.78711;100568.7;;;;-78
2022/08/14 18:01:28;;;;;;;;;;;;;;;33.86;27.82227;100569.2;;;;-76
2022/08/14 18:06:28;;;;;;;;;;;;;;;33.64;27.86914;100568.4;;;;-76
2022/08/14 18:11:29;;;;;;;;;;;;;;;33.45;27.97559;100569.6;;;;-76
2022/08/14 18:14:01;;;;;;;6.8;4.8;;;;;;;;;;;;;-76
2022/08/14 18:16:28;;;;;;;;;;;;;;;33.26;28.12891;100573.1;;;;-75
2022/08/14 18:21:29;;;;;;;;;;;;;;;33.04;28.31738;100578.1;;;;-76
2022/08/14 18:26:30;;;;;;;;;;;;;;;32.77;28.61914;100565.5;;;;-77
2022/08/14 18:31:39;;;;;;;;;;;;;;;32.54;28.92285;100569.2;;;;-76
2022/08/14 18:36:38;;;;;;;;;;;;;;;32.29;29.13184;100569.5;;;;-77
2022/08/14 18:41:33;;;;;;;;;;;;;;;32.05;29.36426;100570.4;;;;-76
2022/08/14 18:44:06;;;;;;;6.6;5.2;;;;;;;;;;;;;-77
2022/08/14 18:46:28;;;;;;;;;;;;;;;31.78;29.75879;100570.7;;;;-77
2022/08/14 18:51:30;;;;;;;;;;;;;;;31.52;30.02441;100564.5;;;;-76
2022/08/14 18:56:41;;;;;;;;;;;;;;;31.29;30.33887;100564.9;;;;-75
2022/08/14 19:01:32;;;;;;;;;;;;;;;31.05;30.67578;100560.7;;;;-77
2022/08/14 19:06:41;;;;;;;;;;;;;;;30.81;31.11816;100565.5;;;;-76
2022/08/14 19:11:42;;;;;;;;;;;;;;;30.59;31.44336;100565.5;;;;-76
2022/08/14 19:14:15;;;;;;;6.1;5;;;;;;;;;;;;;-76
2022/08/14 19:16:35;;;;;;;;;;;;;;;30.38;31.65137;100566.2;;;;-76
2022/08/14 19:21:31;;;;;;;;;;;;;;;30.16;32.15332;100567.8;;;;-78
2022/08/14 19:26:29;;;;;;;;;;;;;;;29.95;32.44238;100567.2;;;;-75
2022/08/14 19:31:44;;;;;;;;;;;;;;;29.76;32.58105;100563.8;;;;-75
2022/08/14 19:36:28;;;;;;;;;;;;;;;29.55;32.94238;100562.8;;;;-75
2022/08/14 19:41:31;;;;;;;;;;;;;;;29.35;33.17285;100559.4;;;;-76
2022/08/14 19:44:19;;;;;;;6.4;5.2;;;;;;;;;;;;;-74
2022/08/14 19:46:30;;;;;;;;;;;;;;;29.18;33.48828;100560.6;;;;-75
2022/08/14 19:51:28;;;;;;;;;;;;;;;29.01;33.79102;100559;;;;-76
2022/08/14 19:56:28;;;;;;;;;;;;;;;28.83;34.43262;100557.4;;;;-75
2022/08/14 20:01:32;;;;;;;;;;;;;;;28.66;34.46582;100557;;;;-75
2022/08/14 20:06:28;;;;;;;;;;;;;;;28.52;34.72461;100559.9;;;;-74
2022/08/14 20:11:32;;;;;;;;;;;;;;;28.34;34.94434;100549.6;;;;-74
2022/08/14 20:14:24;;;;;;;7.2;5.4;;;;;;;;;;;;;-74
2022/08/14 20:16:30;;;;;;;;;;;;;;;28.23;35.32031;100556.1;;;;-75
2022/08/14 20:21:28;;;;;;;;;;;;;;;28.09;35.48438;100556.8;;;;-76
2022/08/14 20:26:28;;;;;;;;;;;;;;;27.96;35.67285;100550.3;;;;-75
2022/08/14 20:31:28;;;;;;;;;;;;;;;27.84;35.81445;100554.1;;;;-74
2022/08/14 20:36:30;;;;;;;;;;;;;;;27.72;36.09668;100554.7;;;;-75
2022/08/14 20:41:28;;;;;;;;;;;;;;;27.62;36.22852;100558.4;;;;-75
2022/08/14 20:46:29;;;;;;;;;;;;;;;27.52;36.48828;100558.5;;;;-75
2022/08/14 20:51:29;;;;;;;;;;;;;;;27.42;36.6084;100554.3;;;;-75
2022/08/14 20:56:28;;;;;;;;;;;;;;;27.32;36.86914;100545.6;;;;-74
2022/08/14 21:01:40;;;;;;;;;;;;;;;27.21;37.02246;100539.6;;;;-74
2022/08/14 21:06:29;;;;;;;;;;;;;;;27.11;37.1543;100540.4;;;;-74
2022/08/14 21:11:28;;;;;;;;;;;;;;;27.01;37.31934;100533;;;;-74
2022/08/14 21:14:32;;;;;;;7.3;5.5;;;;;;;;;;;;;-74
2022/08/14 21:16:29;;;;;;;;;;;;;;;26.9;37.52051;100531.3;;;;-75
2022/08/14 21:21:30;;;;;;;;;;;;;;;26.81;37.84961;100525.3;;;;-75
2022/08/14 21:26:33;;;;;;;;;;;;;;;26.71;37.93457;100526.5;;;;-75
2022/08/14 21:31:28;;;;;;;;;;;;;;;26.6;38.00684;100524.4;;;;-75
2022/08/14 21:36:28;;;;;;;;;;;;;;;26.51;38.04492;100527.2;;;;-76
2022/08/14 21:41:31;;;;;;;;;;;;;;;26.41;38.2002;100526.4;;;;-75
2022/08/14 21:44:36;;;;;;;7;5.4;;;;;;;;;;;;;-75
2022/08/14 21:46:31;;;;;;;;;;;;;;;26.31;38.58594;100522.9;;;;-75
2022/08/14 21:51:28;;;;;;;;;;;;;;;26.21;38.74023;100517.9;;;;-75
2022/08/14 21:56:28;;;;;;;;;;;;;;;26.15;39.00195;100516.3;;;;-75
2022/08/14 22:01:27;;;;;;;;;;;;;;;26.07;39.04102;100514.5;;;;-75
2022/08/14 22:06:29;;;;;;;;;;;;;;;26.01;39.24512;100510.7;;;;-74
2022/08/14 22:11:28;;;;;;;;;;;;;;;25.94;39.42383;100506.7;;;;-74
2022/08/14 22:14:43;;;;;;;8.1;5.4;;;;;;;;;;;;;-75
2022/08/14 22:16:28;;;;;;;;;;;;;;;25.89;39.5127;100503.9;;;;-73
2022/08/14 22:21:28;;;;;;;;;;;;;;;25.81;39.81836;100501.1;;;;-74
2022/08/14 22:26:29;;;;;;;;;;;;;;;25.75;39.89355;100504.9;;;;-76
2022/08/14 22:31:28;;;;;;;;;;;;;;;25.67;39.92285;100500.7;;;;-74
2022/08/14 22:41:28;;;;;;;;;;;;;;;25.55;40.57227;100499.4;;;;-74
2022/08/14 22:44:45;;;;;;;7.1;5.7;;;;;;;;;;;;;-75
2022/08/14 22:46:27;;;;;;;;;;;;;;;25.48;40.75098;100492.5;;;;-74
2022/08/14 22:51:28;;;;;;;;;;;;;;;25.43;40.85059;100488.7;;;;-76
2022/08/14 22:56:29;;;;;;;;;;;;;;;25.36;40.6123;100488.6;;;;-76
2022/08/14 23:01:32;;;;;;;;;;;;;;;25.28;40.87109;100484.4;;;;-74
2022/08/14 23:06:28;;;;;;;;;;;;;;;25.21;40.76074;100481.8;;;;-76
2022/08/14 23:11:28;;;;;;;;;;;;;;;25.12;40.98438;100482.3;;;;-75
2022/08/14 23:14:48;;;;;;;7.3;5.2;;;;;;;;;;;;;-76
2022/08/14 23:16:28;;;;;;;;;;;;;;;25.06;41.05859;100472.2;;;;-75
2022/08/14 23:21:28;;;;;;;;;;;;;;;24.97;40.94727;100470;;;;-75
2022/08/14 23:26:30;;;;;;;;;;;;;;;24.89;41.05566;100464.3;;;;-75
2022/08/14 23:31:28;;;;;;;;;;;;;;;24.81;41.05957;100461.5;;;;-77
2022/08/14 23:36:30;;;;;;;;;;;;;;;24.75;40.97461;100457.8;;;;-75
2022/08/14 23:41:28;;;;;;;;;;;;;;;24.66;41.06934;100454.2;;;;-76
2022/08/14 23:44:52;;;;;;;6.9;5.5;;;;;;;;;;;;;-74
2022/08/14 23:46:28;;;;;;;;;;;;;;;24.59;41.15527;100448.6;;;;-75
2022/08/14 23:51:28;;;;;;;;;;;;;;;24.55;41.03613;100446.9;;;;-74
2022/08/14 23:56:29;;;;;;;;;;;;;;;24.49;41.07715;100447.6;;;;-74
